Time;durP1;ratioP1;P1;durP2;ratioP2;P2;SDS_P1;SDS_P2;PMS_P1;PMS_P2;Temp;Humidity;BMP_temperature;BMP_pressure;BME280_temperature;BME280_humidity;BME280_pressure;Samples;Min_cycle;Max_cycle;Signal;HPM_P1;HPM_P2
2023/05/26 00:01:18;;;;;;;11.82;6.50;;;11.80;99.90;;;;;;6162465;23;20033;-85
2023/05/26 00:04:05;;;;;;;17.63;6.05;;;11.80;1.00;;;;;;6183731;23;20040;-87
2023/05/26 00:06:54;;;;;;;10.50;5.90;;;11.80;1.00;;;;;;6184368;23;20527;-86
2023/05/26 00:09:42;;;;;;;11.73;5.75;;;11.80;1.00;;;;;;6184489;23;20029;-87
2023/05/26 00:12:32;;;;;;;12.00;6.90;;;11.70;1.00;;;;;;6184853;23;20025;-86
2023/05/26 00:15:20;;;;;;;12.13;6.32;;;11.60;1.00;;;;;;6184638;23;20021;-87
2023/05/26 00:18:07;;;;;;;13.25;7.15;;;11.60;1.00;;;;;;6184156;23;20055;-87
2023/05/26 00:20:56;;;;;;;16.20;7.00;;;11.50;1.00;;;;;;6182666;23;20389;-86
2023/05/26 00:23:46;;;;;;;13.32;6.60;;;11.60;1.00;;;;;;6163911;23;20036;-87
2023/05/26 00:26:33;;;;;;;12.75;6.90;;;11.50;1.00;;;;;;6185389;23;20032;-92
2023/05/26 00:29:24;;;;;;;12.15;7.22;;;11.50;1.00;;;;;;6183369;23;20068;-88
2023/05/26 00:32:18;;;;;;;13.35;6.50;;;11.50;1.00;;;;;;6185093;23;20044;-86
2023/05/26 00:35:06;;;;;;;11.73;7.15;;;11.50;1.00;;;;;;6183429;23;20021;-86
2023/05/26 00:37:53;;;;;;;11.60;6.70;;;11.60;1.00;;;;;;6183298;23;20025;-86
2023/05/26 00:40:43;;;;;;;12.00;6.10;;;11.60;1.00;;;;;;6184773;23;20459;-86
2023/05/26 00:43:32;;;;;;;14.85;6.13;;;11.70;1.00;;;;;;6183610;23;20100;-87
2023/05/26 00:46:20;;;;;;;14.43;6.35;;;11.70;1.00;;;;;;6183135;23;20031;-86
2023/05/26 00:49:08;;;;;;;11.15;5.93;;;11.70;1.00;;;;;;6162333;23;20029;-86
2023/05/26 00:51:55;;;;;;;10.45;6.15;;;11.80;1.00;;;;;;6182633;23;20451;-87
2023/05/26 00:54:42;;;;;;;11.68;6.63;;;11.90;1.00;;;;;;6182735;23;20036;-86
2023/05/26 00:57:30;;;;;;;13.18;6.05;;;11.90;1.00;;;;;;6183252;23;20029;-86
2023/05/26 01:00:18;;;;;;;15.00;6.22;;;12.00;1.00;;;;;;6193318;23;20044;-86
2023/05/26 01:03:06;;;;;;;11.73;6.93;;;12.00;1.00;;;;;;6181061;23;20028;-86
2023/05/26 01:05:56;;;;;;;10.98;6.25;;;12.00;1.00;;;;;;6181853;23;20021;-85
2023/05/26 01:08:46;;;;;;;11.88;6.82;;;12.00;1.00;;;;;;6182521;23;20080;-86
2023/05/26 01:11:42;;;;;;;11.05;5.80;;;12.00;1.00;;;;;;6162407;23;20329;-87
2023/05/26 01:14:44;;;;;;;11.30;6.47;;;12.00;1.00;;;;;;6181966;23;20025;-87
2023/05/26 01:17:44;;;;;;;13.32;5.78;;;12.10;1.00;;;;;;6162753;23;20035;-88
2023/05/26 01:20:38;;;;;;;13.48;6.00;;;12.20;1.00;;;;;;6182871;23;20301;-86
2023/05/26 01:24:11;;;;;;;17.83;6.30;;;12.20;1.00;;;;;;6162604;23;20024;-86
2023/05/26 01:27:03;;;;;;;12.98;6.10;;;12.20;99.90;;;;;;6164140;23;20035;-87
2023/05/26 01:29:51;;;;;;;13.82;6.25;;;12.20;99.90;;;;;;6182147;23;20025;-87
2023/05/26 01:32:44;;;;;;;11.25;6.05;;;12.30;99.90;;;;;;6183548;23;20400;-87
2023/05/26 01:35:32;;;;;;;11.93;6.07;;;12.30;99.90;;;;;;6183060;23;20102;-86
2023/05/26 01:38:20;;;;;;;12.65;6.20;;;12.20;99.90;;;;;;6161794;23;20333;-88
2023/05/26 01:41:24;;;;;;;11.68;5.85;;;12.20;99.90;;;;;;6162694;23;20032;-86
2023/05/26 01:44:48;;;;;;;12.25;5.85;;;12.10;99.90;;;;;;6183508;23;20028;-86
2023/05/26 01:47:36;;;;;;;12.93;6.60;;;12.00;99.90;;;;;;6129336;23;20029;-86
2023/05/26 01:50:38;;;;;;;12.27;6.47;;;11.90;1.00;;;;;;6162761;23;20036;-86
2023/05/26 01:53:31;;;;;;;12.32;5.88;;;11.90;1.00;;;;;;6182235;23;20029;-86
2023/05/26 01:56:20;;;;;;;14.60;6.80;;;11.80;1.00;;;;;;6163634;23;20048;-86
2023/05/26 01:59:10;;;;;;;19.60;7.38;;;11.70;1.00;;;;;;6184563;23;20036;-86
2023/05/26 02:01:57;;;;;;;10.35;6.22;;;11.60;1.00;;;;;;6186139;23;20021;-86
2023/05/26 02:04:45;;;;;;;13.48;7.05;;;11.60;1.00;;;;;;6182894;23;20049;-86
2023/05/26 02:07:34;;;;;;;15.85;7.32;;;11.50;1.00;;;;;;6160905;23;20025;-86
2023/05/26 02:10:22;;;;;;;16.40;7.57;;;11.40;1.00;;;;;;6163048;23;20040;-87
2023/05/26 02:13:10;;;;;;;14.45;7.25;;;11.40;1.00;;;;;;6183661;23;20025;-85
2023/05/26 02:15:57;;;;;;;16.73;7.40;;;11.50;1.00;;;;;;6185078;23;20436;-86
2023/05/26 02:18:47;;;;;;;15.80;7.00;;;11.50;1.00;;;;;;6144100;23;20025;-86
2023/05/26 02:21:35;;;;;;;13.63;7.57;;;11.50;1.00;;;;;;6184971;23;20035;-86
2023/05/26 02:24:23;;;;;;;11.93;6.72;;;11.50;1.00;;;;;;6184864;23;20033;-87
2023/05/26 02:27:10;;;;;;;14.20;7.22;;;11.50;1.00;;;;;;6165597;23;20024;-86
2023/05/26 02:29:57;;;;;;;14.20;6.82;;;11.50;1.00;;;;;;6184972;23;20032;-87
2023/05/26 02:32:45;;;;;;;10.90;6.50;;;11.50;1.00;;;;;;6184834;23;20047;-87
2023/05/26 02:35:35;;;;;;;11.93;7.15;;;11.40;1.00;;;;;;6185354;23;20033;-86
2023/05/26 02:38:22;;;;;;;13.90;7.30;;;11.40;1.00;;;;;;6162173;23;20032;-86
2023/05/26 02:41:12;;;;;;;12.10;7.10;;;11.40;1.00;;;;;;6184297;23;20035;-87
2023/05/26 02:43:59;;;;;;;15.35;7.88;;;11.30;1.00;;;;;;6184173;23;20021;-87
2023/05/26 02:46:49;;;;;;;16.90;7.10;;;11.40;1.00;;;;;;6184303;23;20025;-86
2023/05/26 02:49:36;;;;;;;16.70;7.50;;;11.40;1.00;;;;;;6164608;23;20518;-86
2023/05/26 02:52:24;;;;;;;17.02;7.72;;;11.40;1.00;;;;;;6162697;23;20451;-86
2023/05/26 02:55:14;;;;;;;16.73;8.13;;;11.40;1.00;;;;;;6163339;23;20032;-86
2023/05/26 02:58:03;;;;;;;16.13;8.10;;;11.30;1.00;;;;;;6165974;23;20029;-87
2023/05/26 03:00:50;;;;;;;14.95;7.70;;;11.30;1.00;;;;;;6184336;23;20091;-86
2023/05/26 03:03:40;;;;;;;11.57;7.25;;;11.20;1.00;;;;;;6184246;23;20405;-86
2023/05/26 03:06:27;;;;;;;10.77;7.55;;;11.10;1.00;;;;;;6183672;23;20462;-87
2023/05/26 03:09:16;;;;;;;14.77;8.18;;;11.00;1.00;;;;;;6185391;23;20035;-87
2023/05/26 03:12:06;;;;;;;14.85;7.90;;;11.10;1.00;;;;;;6184055;23;20029;-86
2023/05/26 03:14:54;;;;;;;14.55;8.30;;;11.00;1.00;;;;;;6185066;23;20428;-86
2023/05/26 03:17:42;;;;;;;16.95;8.55;;;10.90;1.00;;;;;;6185957;23;20035;-87
2023/05/26 03:20:29;;;;;;;17.98;8.48;;;10.90;1.00;;;;;;6184561;23;20025;-87
2023/05/26 03:23:17;;;;;;;13.75;8.07;;;10.90;8.30;;;;;;6163678;23;20033;-87
2023/05/26 03:26:04;;;;;;;14.73;7.97;;;10.90;1.00;;;;;;6161804;23;20047;-86
2023/05/26 03:28:54;;;;;;;13.82;7.80;;;11.00;1.00;;;;;;6182190;23;20405;-85
2023/05/26 03:31:44;;;;;;;15.13;7.80;;;11.00;3.40;;;;;;6182789;23;20029;-87
2023/05/26 03:34:33;;;;;;;16.20;7.88;;;11.00;10.50;;;;;;6163076;23;20100;-87
2023/05/26 03:37:20;;;;;;;20.17;9.07;;;11.00;18.40;;;;;;6163079;23;20029;-87
2023/05/26 03:40:08;;;;;;;18.55;8.20;;;11.00;45.20;;;;;;6164201;23;20393;-87
2023/05/26 03:42:55;;;;;;;17.42;7.38;;;11.00;53.00;;;;;;6163930;23;20035;-87
2023/05/26 03:45:42;;;;;;;15.82;8.68;;;11.00;38.00;;;;;;6183151;23;20127;-87
2023/05/26 03:48:30;;;;;;;15.35;8.70;;;11.00;75.80;;;;;;6183288;23;20363;-87
2023/05/26 03:51:17;;;;;;;12.27;8.05;;;11.00;94.40;;;;;;6183607;23;20029;-87
2023/05/26 03:54:05;;;;;;;17.80;9.23;;;11.00;95.30;;;;;;6185801;23;20028;-86
2023/05/26 03:56:54;;;;;;;14.23;8.18;;;11.00;77.10;;;;;;6162013;23;20028;-86
2023/05/26 03:59:42;;;;;;;17.73;8.18;;;11.00;76.50;;;;;;6184319;23;20035;-86
2023/05/26 04:03:05;;;;;;;21.50;9.38;;;10.90;68.60;;;;;;6184609;23;20179;-86
2023/05/26 04:06:27;;;;;;;;;;;10.90;70.00;;;;;;6183824;23;20029;-87
2023/05/26 04:09:24;;;;;;;20.70;8.82;;;10.90;71.30;;;;;;6163264;23;19931;-85
2023/05/26 04:12:16;;;;;;;20.95;9.25;;;10.90;99.90;;;;;;6184135;23;20031;-86
2023/05/26 04:15:04;;;;;;;10.80;7.15;;;10.80;99.90;;;;;;6184781;23;20025;-87
2023/05/26 04:17:54;;;;;;;15.75;9.23;;;10.80;99.90;;;;;;6166787;23;20036;-86
2023/05/26 04:20:41;;;;;;;17.73;9.18;;;10.80;99.90;;;;;;6163735;23;20107;-87
2023/05/26 04:23:28;;;;;;;19.52;9.45;;;10.70;99.90;;;;;;6182776;23;20036;-88
2023/05/26 04:26:16;;;;;;;19.75;9.30;;;10.70;99.90;;;;;;6162752;23;20036;-86
2023/05/26 04:29:03;;;;;;;15.75;8.65;;;10.80;99.90;;;;;;6163177;23;20017;-87
2023/05/26 04:31:53;;;;;;;17.13;9.52;;;10.70;99.90;;;;;;6184972;23;20071;-88
2023/05/26 04:34:40;;;;;;;22.77;9.60;;;10.70;99.90;;;;;;6163537;23;20040;-88
2023/05/26 04:37:33;;;;;;;16.27;8.73;;;10.70;99.90;;;;;;6185362;23;20028;-89
2023/05/26 04:40:21;;;;;;;13.88;8.95;;;10.70;99.90;;;;;;6185295;23;20037;-87
2023/05/26 04:43:10;;;;;;;20.60;9.70;;;10.70;99.90;;;;;;6183738;23;20043;-86
2023/05/26 04:45:57;;;;;;;20.63;10.52;;;10.70;99.90;;;;;;6183531;23;20104;-89
2023/05/26 04:48:45;;;;;;;21.75;10.10;;;10.70;99.90;;;;;;6185014;23;20052;-88
2023/05/26 04:51:33;;;;;;;14.98;9.45;;;10.60;99.90;;;;;;6185260;23;20029;-89
2023/05/26 04:54:21;;;;;;;23.95;10.45;;;10.60;99.90;;;;;;6163694;23;20031;-89
2023/05/26 04:57:08;;;;;;;18.83;9.30;;;10.70;99.90;;;;;;6168076;23;20024;-91
2023/05/26 04:59:55;;;;;;;21.85;10.20;;;10.70;99.90;;;;;;6165314;23;20409;-93
2023/05/26 05:05:24;;;;;;;17.58;9.52;;;10.90;99.90;;;;;;6151687;23;20052;-84
2023/05/26 05:08:15;;;;;;;14.98;8.38;;;11.00;99.90;;;;;;6185627;23;20028;-88
2023/05/26 05:11:03;;;;;;;20.48;9.98;;;11.10;99.90;;;;;;6177569;23;20120;-89
2023/05/26 05:13:50;;;;;;;20.05;10.20;;;11.20;99.90;;;;;;6194393;23;20513;-89
2023/05/26 05:16:38;;;;;;;20.80;9.98;;;11.40;99.90;;;;;;6183414;23;20112;-87
2023/05/26 05:19:25;;;;;;;16.17;9.25;;;11.50;99.90;;;;;;6180959;23;20033;-89
2023/05/26 05:22:13;;;;;;;15.32;8.88;;;11.60;99.90;;;;;;6184416;23;20028;-90
2023/05/26 05:25:00;;;;;;;18.33;9.48;;;11.70;99.90;;;;;;6182803;23;20127;-86
2023/05/26 05:27:47;;;;;;;17.00;9.18;;;11.80;99.90;;;;;;6180507;23;20119;-87
2023/05/26 05:30:34;;;;;;;17.20;9.43;;;11.90;99.90;;;;;;6181087;23;20029;-86
2023/05/26 05:33:22;;;;;;;19.58;9.13;;;12.00;99.90;;;;;;6178630;23;20124;-86
2023/05/26 05:36:44;;;;;;;21.33;9.63;;;12.10;99.50;;;;;;6183089;23;20029;-87
2023/05/26 05:39:32;;;;;;;19.05;9.63;;;12.20;66.90;;;;;;6178734;23;20385;-90
2023/05/26 05:42:24;;;;;;;19.63;9.23;;;12.20;32.90;;;;;;6183361;23;20025;-89
2023/05/26 05:45:11;;;;;;;19.38;9.93;;;12.40;10.70;;;;;;6182939;23;20047;-89
2023/05/26 05:48:01;;;;;;;19.02;10.13;;;12.40;2.60;;;;;;6180272;23;20036;-89
2023/05/26 05:50:52;;;;;;;17.30;8.65;;;12.50;1.00;;;;;;6180781;23;20025;-88
2023/05/26 05:53:40;;;;;;;18.17;9.02;;;12.60;1.00;;;;;;6179601;23;20096;-89
2023/05/26 05:56:27;;;;;;;18.45;8.85;;;12.70;1.00;;;;;;6178076;23;20029;-85
2023/05/26 05:59:14;;;;;;;21.65;9.48;;;12.80;1.00;;;;;;6181362;23;20039;-86
2023/05/26 06:02:02;;;;;;;19.30;8.93;;;12.90;1.00;;;;;;6179313;23;20032;-86
2023/05/26 06:04:54;;;;;;;13.98;8.48;;;13.00;1.00;;;;;;6183569;23;20104;-87
2023/05/26 06:07:41;;;;;;;13.45;8.85;;;13.10;1.00;;;;;;6181798;23;20040;-88
2023/05/26 06:10:29;;;;;;;17.20;9.20;;;13.10;1.00;;;;;;6181098;23;20036;-86
2023/05/26 06:13:16;;;;;;;17.38;8.77;;;13.20;99.90;;;;;;6180503;23;20036;-86
2023/05/26 06:16:04;;;;;;;20.65;9.77;;;13.30;99.90;;;;;;6181788;23;20047;-84
2023/05/26 06:18:51;;;;;;;16.70;9.45;;;13.40;99.90;;;;;;6183000;23;20455;-87
2023/05/26 06:21:39;;;;;;;19.38;9.63;;;13.40;99.90;;;;;;6181491;23;20024;-86
2023/05/26 06:24:27;;;;;;;20.85;9.35;;;13.60;99.90;;;;;;6180699;23;20032;-88
2023/05/26 06:27:15;;;;;;;23.25;9.15;;;13.80;99.90;;;;;;6172723;23;20033;-83
2023/05/26 06:30:26;;;;;;;14.93;8.30;;;13.90;99.90;;;;;;6179788;23;20109;-87
2023/05/26 06:33:26;;;;;;;18.50;8.77;;;14.00;99.90;;;;;;6180870;23;20025;-88
2023/05/26 06:37:01;;;;;;;14.23;7.93;;;14.10;99.90;;;;;;6185265;23;20064;-87
2023/05/26 06:39:54;;;;;;;18.23;8.50;;;14.30;99.90;;;;;;6183126;23;20496;-87
2023/05/26 06:43:01;;;;;;;22.15;10.02;;;14.50;99.90;;;;;;6181469;23;20151;-89
2023/05/26 06:45:52;;;;;;;15.90;8.55;;;14.70;99.90;;;;;;6182995;23;20025;-89
2023/05/26 06:48:40;;;;;;;17.33;8.38;;;15.00;99.90;;;;;;6184295;23;20104;-90
2023/05/26 06:51:51;;;;;;;18.63;8.35;;;15.30;99.90;;;;;;6182908;23;20025;-89
2023/05/26 06:54:52;;;;;;;19.67;8.13;;;15.40;99.90;;;;;;6180092;23;20021;-88
2023/05/26 06:57:49;;;;;;;13.10;7.63;;;15.70;99.90;;;;;;6182708;23;20029;-86
2023/05/26 07:00:54;;;;;;;14.45;7.50;;;16.00;99.90;;;;;;6179250;23;20147;-90
2023/05/26 07:03:54;;;;;;;13.02;7.88;;;16.30;99.90;;;;;;6185865;23;20324;-86
2023/05/26 07:07:12;;;;;;;13.10;7.78;;;17.00;99.90;;;;;;6182588;23;20025;-90
2023/05/26 07:10:14;;;;;;;14.77;7.65;;;17.40;99.90;;;;;;6184389;23;20420;-88
2023/05/26 07:13:05;;;;;;;18.00;8.10;;;17.50;99.90;;;;;;6167441;23;20115;-87
2023/05/26 07:16:43;;;;;;;16.38;7.32;;;17.70;99.90;;;;;;6186147;23;20045;-90
2023/05/26 07:19:44;;;;;;;12.25;7.45;;;18.20;99.90;;;;;;6019135;23;20395;-88
2023/05/26 07:22:38;;;;;;;12.25;7.00;;;18.60;99.90;;;;;;6020068;23;20046;-90
2023/05/26 07:25:26;;;;;;;16.10;7.25;;;19.00;99.90;;;;;;6165172;23;20029;-88
2023/05/26 07:28:14;;;;;;;15.23;7.38;;;19.40;99.90;;;;;;6161919;23;20021;-87
2023/05/26 07:34:57;;;;;;;14.02;7.00;;;20.30;99.90;;;;;;6185580;23;20513;-88
2023/05/26 07:42:20;;;;;;;11.82;6.80;;;20.80;70.30;;;;;;6183953;23;20016;-87
2023/05/26 07:45:27;;;;;;;14.10;7.10;;;21.10;53.40;;;;;;6171410;23;20523;-89
2023/05/26 07:48:35;;;;;;;11.75;6.80;;;21.50;62.40;;;;;;6167348;23;20025;-87
2023/05/26 07:51:24;;;;;;;10.35;6.68;;;21.90;50.70;;;;;;6162035;23;20025;-88
2023/05/26 07:54:26;;;;;;;17.25;7.10;;;22.20;50.20;;;;;;6162337;23;20133;-90
2023/05/26 07:57:41;;;;;;;;;;;;;;;;;;;;;
2023/05/26 08:00:50;;;;;;;13.32;7.25;;;22.40;32.90;;;;;;6170133;23;20128;-88
2023/05/26 08:04:18;;;;;;;11.00;6.07;;;22.30;26.80;;;;;;6165478;23;20033;-86
2023/05/26 08:07:13;;;;;;;9.80;6.30;;;22.30;34.40;;;;;;6184300;23;20025;-90
2023/05/26 08:10:19;;;;;;;11.90;6.70;;;22.90;29.00;;;;;;6182412;23;20029;-86
2023/05/26 08:13:10;;;;;;;16.33;7.35;;;23.00;31.90;;;;;;6181473;23;20144;-90
2023/05/26 08:16:12;;;;;;;12.68;6.57;;;23.50;28.40;;;;;;6167813;23;20020;-89
2023/05/26 08:19:06;;;;;;;10.80;6.30;;;23.60;23.70;;;;;;6161819;23;20039;-88
2023/05/26 08:21:57;;;;;;;15.00;6.97;;;24.00;26.70;;;;;;6163213;23;20060;-88
2023/05/26 08:24:48;;;;;;;12.52;8.77;;;24.10;23.40;;;;;;6163708;23;20029;-87
2023/05/26 08:27:46;;;;;;;14.50;6.43;;;24.30;24.80;;;;;;6163553;23;20021;-91
2023/05/26 08:30:36;;;;;;;10.65;6.72;;;24.50;20.40;;;;;;6164640;23;20064;-89
2023/05/26 08:33:27;;;;;;;11.48;7.35;;;24.50;22.40;;;;;;6182797;23;20025;-89
2023/05/26 08:36:25;;;;;;;11.82;6.80;;;24.50;19.30;;;;;;6164797;23;20324;-90
2023/05/26 08:39:14;;;;;;;11.95;6.78;;;24.50;29.80;;;;;;6162918;23;20033;-83
2023/05/26 08:42:14;;;;;;;11.60;5.07;;;25.00;28.70;;;;;;6182234;23;20029;-87
2023/05/26 08:45:02;;;;;;;11.73;6.50;;;26.00;26.70;;;;;;6160365;23;20496;-86
2023/05/26 08:48:19;;;;;;;13.23;6.95;;;25.90;90.10;;;;;;6161585;23;20048;-89
2023/05/26 08:51:16;;;;;;;14.82;5.93;;;25.80;80.30;;;;;;6163718;23;20079;-89
2023/05/26 08:54:06;;;;;;;14.63;6.68;;;26.10;87.10;;;;;;6161024;23;20032;-86
2023/05/26 08:56:59;;;;;;;12.75;6.15;;;26.40;57.60;;;;;;6184151;23;20025;-85
2023/05/26 09:00:04;;;;;;;13.63;5.72;;;26.00;93.50;;;;;;6163633;23;20025;-87
2023/05/26 09:03:05;;;;;;;11.32;5.93;;;25.10;49.20;;;;;;6181920;23;20105;-87
2023/05/26 09:06:09;;;;;;;12.07;5.93;;;25.40;37.90;;;;;;6162850;23;20040;-87
2023/05/26 09:09:01;;;;;;;14.55;5.72;;;26.20;57.30;;;;;;6182643;23;20116;-89
2023/05/26 09:16:48;;;;;;;9.68;5.32;;;27.10;29.90;;;;;;6182860;23;20039;-84
2023/05/26 09:19:57;;;;;;;11.73;5.53;;;27.40;27.50;;;;;;6166842;23;20040;-88
2023/05/26 09:23:00;;;;;;;9.38;5.45;;;27.30;33.80;;;;;;6160699;23;20090;-89
2023/05/26 09:26:44;;;;;;;;;;;;;;;;;;;;;
2023/05/26 09:30:03;;;;;;;;;;;;;;;;;;;;;
2023/05/26 09:33:59;;;;;;;6.68;4.60;;;29.10;60.50;;;;;;6101079;23;19916;-91
2023/05/26 09:37:34;;;;;;;9.23;4.97;;;28.70;83.90;;;;;;6167662;23;20024;-88
2023/05/26 09:40:27;;;;;;;11.77;5.82;;;29.30;51.40;;;;;;6160231;23;20032;-86
2023/05/26 09:43:26;;;;;;;14.93;5.45;;;28.80;52.10;;;;;;6183279;23;20032;-90
2023/05/26 09:46:27;;;;;;;12.63;5.90;;;28.00;59.10;;;;;;6182553;23;20529;-87
2023/05/26 09:49:18;;;;;;;13.52;5.85;;;27.90;58.50;;;;;;6180754;23;20051;-88
2023/05/26 09:52:07;;;;;;;10.15;4.95;;;27.70;56.40;;;;;;6181967;23;20436;-87
2023/05/26 09:55:00;;;;;;;10.93;6.05;;;27.50;50.00;;;;;;6163172;23;20024;-89
2023/05/26 09:58:11;;;;;;;10.52;5.30;;;27.60;42.60;;;;;;6183322;23;20118;-93
2023/05/26 10:01:00;;;;;;;13.17;5.97;;;27.90;30.40;;;;;;6162377;23;20032;-87
2023/05/26 10:04:20;;;;;;;13.55;6.25;;;27.70;32.90;;;;;;6164509;23;20052;-90
2023/05/26 10:07:30;;;;;;;12.38;5.45;;;27.40;54.10;;;;;;5994367;23;20732;-90
2023/05/26 10:10:54;;;;;;;;;;;;;;;;;;;;;
2023/05/26 10:18:32;;;;;;;11.38;5.00;;;27.40;37.10;;;;;;5944956;24;20016;-92
2023/05/26 10:21:38;;;;;;;11.50;5.22;;;27.90;37.80;;;;;;5934579;24;20036;-82
2023/05/26 10:24:34;;;;;;;11.25;5.45;;;28.60;44.30;;;;;;5948908;24;20036;-83
2023/05/26 10:27:30;;;;;;;11.30;4.80;;;29.10;49.90;;;;;;5990068;23;20312;-85
2023/05/26 10:30:20;;;;;;;8.52;4.93;;;29.40;68.60;;;;;;6062653;23;20034;-85
2023/05/26 10:33:19;;;;;;;10.73;5.45;;;29.50;35.90;;;;;;6042906;23;20178;-87
2023/05/26 10:36:08;;;;;;;10.48;5.22;;;28.60;66.20;;;;;;6044053;23;20041;-86
2023/05/26 10:38:58;;;;;;;8.80;5.53;;;28.80;84.70;;;;;;6065104;23;20027;-93
2023/05/26 10:41:49;;;;;;;12.00;5.25;;;28.60;71.10;;;;;;6064163;23;20026;-86
2023/05/26 10:44:45;;;;;;;9.55;4.85;;;28.50;88.40;;;;;;6161603;23;20033;-87
2023/05/26 10:47:49;;;;;;;12.20;5.18;;;28.90;39.00;;;;;;6162203;23;20764;-88
2023/05/26 10:50:58;;;;;;;10.05;5.18;;;29.20;49.40;;;;;;6163865;23;20301;-90
2023/05/26 10:53:46;;;;;;;13.43;5.93;;;29.10;57.90;;;;;;6184517;23;20353;-87
2023/05/26 10:56:43;;;;;;;9.00;4.95;;;29.00;70.70;;;;;;6183955;23;20025;-87
2023/05/26 10:59:35;;;;;;;12.82;5.85;;;29.30;64.20;;;;;;6163845;23;20361;-88
2023/05/26 11:02:22;;;;;;;12.02;5.47;;;29.10;61.20;;;;;;6161605;23;20421;-87
2023/05/26 11:05:31;;;;;;;11.27;6.10;;;29.20;84.60;;;;;;6182857;23;20028;-89
2023/05/26 11:08:49;;;;;;;10.60;5.20;;;28.80;99.90;;;;;;6162001;23;20108;-87
2023/05/26 11:11:52;;;;;;;9.82;4.60;;;29.50;85.90;;;;;;6184178;23;20028;-88
2023/05/26 11:14:45;;;;;;;13.82;5.72;;;29.60;85.90;;;;;;6166764;23;20028;-89
2023/05/26 11:17:38;;;;;;;9.52;5.28;;;30.20;99.60;;;;;;6164064;23;20029;-88
2023/05/26 11:20:55;;;;;;;10.38;5.25;;;30.20;99.90;;;;;;6164607;23;20032;-90
2023/05/26 11:23:50;;;;;;;14.82;5.50;;;29.60;92.80;;;;;;6160342;23;20017;-89
2023/05/26 11:30:42;;;;;;;15.38;5.95;;;29.60;29.40;;;;;;6183569;23;20029;-91
2023/05/26 11:33:45;;;;;;;17.30;6.57;;;28.60;38.50;;;;;;6168814;23;20040;-88
2023/05/26 11:36:58;;;;;;;13.57;6.07;;;28.60;21.40;;;;;;6186126;23;20044;-88
2023/05/26 11:39:46;;;;;;;8.75;5.47;;;29.00;26.10;;;;;;6163101;23;20057;-87
2023/05/26 11:42:33;;;;;;;11.00;5.28;;;29.10;27.80;;;;;;6161952;23;20067;-86
2023/05/26 11:45:22;;;;;;;11.73;4.88;;;29.80;47.80;;;;;;6161400;23;20445;-89
2023/05/26 11:48:16;;;;;;;15.13;5.82;;;30.10;73.40;;;;;;6165223;23;20024;-88
2023/05/26 11:51:19;;;;;;;;;;;;;;;;;;;;;
2023/05/26 11:54:35;;;;;;;9.75;4.90;;;29.40;26.20;;;;;;6183042;23;20021;-87
2023/05/26 11:57:33;;;;;;;11.50;5.40;;;30.30;66.80;;;;;;6185415;23;20021;-89
2023/05/26 12:00:30;;;;;;;10.50;5.50;;;30.10;19.10;;;;;;6164411;23;20025;-92
2023/05/26 12:03:22;;;;;;;11.30;6.05;;;30.10;67.70;;;;;;6183870;23;20021;-91
2023/05/26 12:06:17;;;;;;;10.73;5.15;;;30.50;92.50;;;;;;6185430;23;20025;-88
2023/05/26 12:09:40;;;;;;;8.80;4.60;;;31.30;92.60;;;;;;6169472;23;20036;-92
2023/05/26 12:12:51;;;;;;;9.00;4.88;;;32.20;91.10;;;;;;6165791;23;20029;-86
2023/05/26 12:15:38;;;;;;;9.70;4.82;;;32.40;79.00;;;;;;6183730;23;20259;-87
2023/05/26 12:18:26;;;;;;;7.75;4.72;;;32.90;58.30;;;;;;6160265;23;20025;-87
2023/05/26 12:21:17;;;;;;;12.40;5.22;;;32.80;24.70;;;;;;6183842;23;20043;-87
2023/05/26 12:24:07;;;;;;;11.98;5.78;;;31.30;52.10;;;;;;6160971;23;20040;-87
2023/05/26 12:27:06;;;;;;;9.23;4.85;;;29.70;31.40;;;;;;6164092;23;20728;-87
2023/05/26 12:30:18;;;;;;;10.32;5.05;;;29.50;7.40;;;;;;6083864;23;20032;-88
2023/05/26 12:33:08;;;;;;;13.90;5.43;;;29.90;9.80;;;;;;6163514;23;20025;-88
2023/05/26 12:36:02;;;;;;;8.55;4.78;;;29.90;7.60;;;;;;6163559;23;20316;-87
2023/05/26 12:38:52;;;;;;;11.85;4.90;;;31.00;17.60;;;;;;6161997;23;20028;-87
2023/05/26 12:42:06;;;;;;;11.40;4.97;;;31.60;7.10;;;;;;6161603;23;20029;-89
2023/05/26 12:45:15;;;;;;;10.65;5.43;;;31.30;1.00;;;;;;6182420;23;20025;-86
2023/05/26 12:48:26;;;;;;;8.45;4.88;;;30.50;1.00;;;;;;6176004;23;20372;-87
2023/05/26 12:51:38;;;;;;;8.80;4.97;;;28.80;13.40;;;;;;6164436;23;20059;-85
2023/05/26 12:54:26;;;;;;;10.07;4.93;;;29.20;2.00;;;;;;6184852;23;20025;-88
2023/05/26 12:57:46;;;;;;;;;;;;;;;;;;;;;
2023/05/26 13:00:38;;;;;;;;;;;31.50;6.80;;;;;;6187053;23;20025;-89
2023/05/26 13:03:37;;;;;;;12.48;5.45;;;31.40;5.80;;;;;;6161836;23;19920;-87
2023/05/26 13:06:36;;;;;;;12.23;4.70;;;30.30;3.70;;;;;;6165526;23;20025;-88
2023/05/26 13:09:28;;;;;;;8.90;4.72;;;29.40;13.70;;;;;;6191034;23;20029;-93
2023/05/26 13:12:18;;;;;;;9.82;4.78;;;28.90;6.10;;;;;;6166993;23;20025;-90
2023/05/26 13:15:08;;;;;;;7.43;4.82;;;27.90;2.80;;;;;;6167165;23;20071;-91
2023/05/26 13:17:55;;;;;;;7.20;4.50;;;28.20;5.20;;;;;;6184254;23;20036;-91
2023/05/26 13:20:55;;;;;;;8.93;4.93;;;29.20;3.80;;;;;;6162777;23;20356;-91
2023/05/26 13:23:42;;;;;;;8.48;4.22;;;29.90;4.50;;;;;;6181995;23;20025;-90
2023/05/26 13:26:30;;;;;;;8.20;4.90;;;31.30;1.00;;;;;;6161746;23;20036;-88
2023/05/26 13:29:20;;;;;;;11.98;5.50;;;30.60;1.00;;;;;;6161853;23;20056;-88
2023/05/26 13:32:07;;;;;;;11.00;5.47;;;28.40;1.00;;;;;;6162286;23;20042;-87
2023/05/26 13:34:55;;;;;;;9.90;5.50;;;27.10;1.00;;;;;;6181263;23;20036;-90
2023/05/26 13:37:42;;;;;;;10.00;5.10;;;27.00;1.00;;;;;;6162965;23;20028;-88
2023/05/26 13:40:29;;;;;;;7.68;4.68;;;27.10;15.60;;;;;;6185617;23;20032;-85
2023/05/26 13:43:19;;;;;;;8.57;4.65;;;28.30;2.60;;;;;;6160723;23;20024;-84
2023/05/26 13:46:09;;;;;;;12.13;4.68;;;29.00;1.00;;;;;;6183841;23;20089;-87
2023/05/26 13:48:57;;;;;;;11.07;5.15;;;30.20;1.00;;;;;;6160842;23;20044;-87
2023/05/26 13:51:47;;;;;;;9.75;4.53;;;31.10;1.00;;;;;;6180834;23;20160;-90
2023/05/26 13:54:36;;;;;;;7.72;5.15;;;30.40;1.00;;;;;;6162500;23;20425;-90
2023/05/26 14:14:20;;;;;;;7.57;4.57;;;30.90;1.00;;;;;;6040802;23;20023;-85
2023/05/26 14:17:12;;;;;;;7.72;5.30;;;29.40;1.00;;;;;;6185989;23;20861;-87
2023/05/26 14:20:04;;;;;;;10.27;4.95;;;27.80;1.00;;;;;;6167682;23;20075;-88
2023/05/26 14:22:58;;;;;;;7.88;4.70;;;27.70;1.00;;;;;;6187638;23;20021;-89
2023/05/26 14:25:46;;;;;;;11.10;5.33;;;27.80;1.00;;;;;;6183579;23;20036;-89
2023/05/26 14:28:36;;;;;;;13.13;5.60;;;27.20;1.00;;;;;;6162285;23;20325;-86
2023/05/26 14:31:26;;;;;;;11.30;4.80;;;26.10;1.00;;;;;;6185865;23;20039;-86
2023/05/26 14:34:19;;;;;;;9.93;5.68;;;26.30;1.00;;;;;;6184608;23;20028;-87
2023/05/26 14:37:06;;;;;;;12.55;5.57;;;26.50;1.00;;;;;;6163342;23;20044;-87
2023/05/26 14:39:53;;;;;;;9.38;4.40;;;26.90;1.00;;;;;;6185266;23;20024;-85
2023/05/26 14:42:41;;;;;;;12.02;4.90;;;26.90;1.00;;;;;;6185496;23;20025;-88
2023/05/26 14:45:28;;;;;;;8.57;4.82;;;26.70;1.00;;;;;;6185104;23;20404;-87
2023/05/26 14:48:24;;;;;;;7.85;4.90;;;27.00;1.00;;;;;;6184001;23;20029;-90
2023/05/26 14:51:14;;;;;;;12.70;5.38;;;27.50;1.00;;;;;;6185434;23;20025;-86
2023/05/26 14:54:09;;;;;;;9.50;5.22;;;26.70;1.00;;;;;;6193069;23;20021;-87
2023/05/26 14:57:05;;;;;;;8.57;5.10;;;27.30;1.00;;;;;;6163828;23;20308;-87
2023/05/26 14:59:55;;;;;;;12.00;5.03;;;27.60;1.00;;;;;;6184073;23;20032;-88
2023/05/26 15:02:45;;;;;;;7.25;4.93;;;26.70;1.00;;;;;;6183950;23;20028;-86
2023/05/26 15:05:32;;;;;;;11.98;5.00;;;26.10;1.00;;;;;;6164115;23;20024;-89
2023/05/26 15:08:20;;;;;;;10.15;5.20;;;26.50;1.00;;;;;;6186974;23;20159;-88
2023/05/26 15:11:07;;;;;;;10.60;5.80;;;26.30;1.00;;;;;;6186174;23;20056;-89
2023/05/26 15:13:55;;;;;;;7.20;4.75;;;26.80;1.00;;;;;;6184133;23;20021;-88
2023/05/26 15:16:44;;;;;;;7.30;4.43;;;27.50;1.00;;;;;;6188397;23;20025;-87
2023/05/26 15:19:35;;;;;;;9.20;5.20;;;28.50;1.00;;;;;;6185571;23;20025;-90
2023/05/26 15:22:22;;;;;;;8.43;4.82;;;27.70;1.00;;;;;;6186322;23;20025;-92
2023/05/26 15:25:12;;;;;;;11.30;5.30;;;27.60;1.00;;;;;;6165519;23;20140;-87
2023/05/26 15:28:01;;;;;;;10.00;5.45;;;26.90;1.00;;;;;;6191868;23;20021;-91
2023/05/26 15:30:51;;;;;;;11.13;5.57;;;25.50;1.00;;;;;;6188674;23;20040;-90
2023/05/26 15:33:38;;;;;;;11.68;4.82;;;25.50;1.00;;;;;;6184641;23;20029;-91
2023/05/26 15:36:26;;;;;;;12.00;5.10;;;26.10;1.00;;;;;;6164376;23;20115;-93
2023/05/26 15:42:25;;;;;;;9.98;5.38;;;27.00;1.00;;;;;;6193054;23;20029;-92
2023/05/26 15:45:14;;;;;;;7.45;4.43;;;27.10;1.00;;;;;;6186221;23;20021;-92
2023/05/26 15:48:01;;;;;;;9.05;4.30;;;27.30;1.00;;;;;;6182746;23;20101;-91
2023/05/26 15:50:49;;;;;;;7.05;4.30;;;27.50;1.00;;;;;;6185129;23;20336;-93
2023/05/26 15:53:36;;;;;;;11.40;5.00;;;26.80;1.00;;;;;;6188562;23;20039;-91
2023/05/26 15:56:27;;;;;;;11.35;4.80;;;26.30;1.00;;;;;;6187535;23;20025;-92